Weather observations for the past three days for
Big Spring, Big Spring McMahon-Wrinkle Airport
Metric (Imperial)
Date Time (cdt) Wind (kph) Vis. (km) Weather Sky Cond. Temperature (ºC) Relative Humidity Wind Chill (°C) Heat Index (°C) Pressure Precipitation (cm)
Air Dwpt 6 hour altimeter (cm) sea level (mb) 1 hr 3 hr 6 hr
Max. Min.
02 19:55 S 9 16.09 Overcast OVC070 19.2 5.6 41% 76.58 0.0
02 19:35 S 6 16.09 Overcast OVC070 19.3 5.7 41% 76.61 0.0
02 19:15 S 7 16.09 Overcast OVC070 19.3 5.2 40% 76.58 0.0
02 18:55 W 11 16.09 Overcast OVC070 19.3 5.1 20 17.5 39% 76.58 0.0
02 18:35 SW 11 16.09 Overcast OVC070 19.4 5.5 40% 76.58 0.0
02 18:15 E 6 16.09 Overcast OVC070 19.5 5.4 40% 76.58 0.0
02 17:55 SE 7 16.09 Overcast OVC070 19.3 5.4 40% 76.61 0.0
02 17:35 SW 11 16.09 Overcast OVC070 19.4 5.3 40% 76.63 0.0
02 17:15 SE 7 16.09 Overcast OVC080 19.4 5.3 40% 76.63 0.0
02 16:55 SW 9 16.09 Overcast OVC080 19.4 6 42% 76.66 0.0
02 16:35 W 17 16.09 Mostly Cloudy BKN080 19.6 5.7 40% 76.68 0.0
02 16:15 W 19 16.09 Partly Cloudy SCT080 19.6 6.2 42% 76.68 0.0
02 15:55 W 15 16.09 Overcast SCT050 OVC080 19.4 5.8 41% 76.71 0.0
02 15:35 SW 15 16.09 Overcast BKN050 OVC070 19.9 6 40% 76.73 0.0
02 15:15 SE 7 16.09 Overcast OVC070 19.3 5.8 41% 76.73 0.0
02 14:55 SW 17 16.09 Overcast OVC070 19 5.7 42% 76.76 0.0
02 14:35 W 15 16.09 Overcast SCT050 OVC070 18.5 5.6 43% 76.76 0.0
02 14:15 SW 20 16.09 Overcast SCT050 OVC070 18.7 6.3 45% 76.76 0.0
02 13:55 W 13 16.09 Overcast OVC070 18.5 5.7 43% 76.78 0.0
02 13:35 N 13 16.09 Overcast OVC070 18 5.3 43% 76.81 0.0
02 13:15 N 11 16.09 Overcast OVC060 18.1 5.5 44% 76.81 0.0
02 12:55 Calm 16.09 Mostly Cloudy BKN070 17.6 4.7 18.9 11.6 43% 76.81 0.0
02 12:35 SW 7 16.09 Fair CLR 17.7 5.5 45% 76.84 0.0
02 12:15 NW 11 16.09 Fair CLR 18.5 7 47% 76.84 0.0
02 11:55 W 17 16.09 Partly Cloudy SCT050 17.4 6.1 48% 76.86 0.0
02 11:35 W 19 16.09 Fair CLR 17.3 6.4 49% 76.86 0.0
02 11:15 N 13 16.09 Fair CLR 16.9 5.3 47% 76.86 0.0
02 10:55 W 19 G 28 16.09 Fair CLR 16.5 6.2 51% 76.86 0.0
02 10:35 W 15 16.09 Fair CLR 16.1 5.5 50% 76.86 0.0
02 10:15 W 19 G 30 16.09 Fair CLR 15.6 5.8 52% 76.86 0.0
02 09:55 W 20 16.09 Fair CLR 15.4 5.3 51% 76.86 0.0
02 09:35 W 17 G 28 16.09 Fair CLR 15 5.8 54% 76.84 0.0
02 09:15 W 19 16.09 Fair CLR 14.3 8.1 67% 76.84 0.0
02 08:55 W 15 16.09 Partly Cloudy SCT090 13.3 8.9 75% 76.84 0.0
02 08:35 W 17 16.09 Partly Cloudy SCT090 12.5 9.4 82% 76.81 0.0
02 08:15 W 17 16.09 Mostly Cloudy BKN090 12.1 9.8 86% 76.81 0.0
02 07:55 W 17 16.09 Overcast OVC090 11.9 9.7 87% 76.78 0.0
02 07:35 W 19 16.09 Overcast OVC090 11.8 9.7 87% 76.76 0.0
02 07:10 W 13 16.09 Overcast OVC090 11.7 9.7 88% 76.73 0.0
02 06:55 W 15 16.09 Overcast OVC090 11.6 9.6 12.8 11 88% 76.73 0.0
02 06:35 W 15 16.09 Overcast OVC090 11.6 9.7 88% 76.71 0.0
02 06:15 W 15 16.09 Overcast OVC090 11.6 9.6 88% 76.71 0.0
02 05:55 W 13 16.09 Overcast OVC090 11.6 9.6 88% 76.71 0.0
02 05:35 W 13 16.09 Overcast OVC090 11.7 9.3 85% 76.68 0.0
02 05:15 W 15 16.09 Overcast OVC090 11.9 9 83% 76.68 0.0
02 04:55 W 13 16.09 Overcast OVC090 11.8 8.9 83% 76.68 0.0
02 04:35 W 15 16.09 Overcast OVC090 11.7 9.2 85% 76.66 0.0
02 04:15 W 13 16.09 Overcast OVC090 11.6 9.1 85% 76.63 0.0
02 03:55 W 15 16.09 Overcast OVC090 11.8 8.7 81% 76.63 0.0
02 03:35 W 15 16.09 Overcast OVC080 11.7 9.1 84% 76.63 0.0
02 03:15 W 13 16.09 Overcast OVC080 11.4 9 85% 76.63 0.0
02 02:55 W 13 16.09 Overcast SCT060 OVC080 11.3 8.6 84% 76.63 0.0
02 02:35 W 15 16.09 Mostly Cloudy SCT060 BKN080 BKN090 11.6 8.9 84% 76.66 0.0
02 02:15 W 17 16.09 Overcast OVC080 11.9 8.7 81% 76.66 0.0
02 01:35 W 11 16.09 Partly Cloudy SCT075 SCT120 12.1 8.7 80% 76.66 0.0
02 01:15 W 9 16.09 Overcast SCT075 OVC120 12.7 8.2 74% 76.66 0.0
02 00:55 W 9 16.09 Overcast BKN090 OVC120 12.8 8.1 15 12.8 73% 76.66 0.0
02 00:35 W 11 16.09 Overcast OVC090 13 7.9 71% 76.66 0.0
02 00:15 SW 9 16.09 Overcast OVC080 13.1 7.7 70% 76.66 0.0
01 23:55 SE 11 16.09 Overcast BKN080 OVC090 13.3 7.3 67% 76.61 0.0
01 23:35 E 11 16.09 Overcast OVC080 13.5 6.5 63% 76.58 0.0
01 23:15 S 7 16.09 Overcast OVC090 13.5 6.6 63% 76.58 0.0
01 22:55 SE 9 16.09 Overcast OVC090 13.3 6.9 65% 76.56 0.0
01 22:35 W 7 16.09 Overcast OVC090 13.4 7 65% 76.56 0.0
01 22:15 N 11 16.09 Overcast OVC100 13.4 6.8 65% 76.53 0.0
01 21:55 NW 9 16.09 Overcast SCT070 OVC100 13.6 6.4 62% 76.53 0.0
01 21:35 N 11 16.09 Overcast SCT070 OVC110 13.6 6.4 62% 76.5 0.0
01 21:15 N 15 16.09 Overcast SCT070 OVC120 13.6 6.4 62% 76.48 0.0
01 20:55 N 13 16.09 Mostly Cloudy BKN070 BKN090 BKN120 13.7 6.7 63% 76.45 0.0
01 20:35 N 15 16.09 Mostly Cloudy SCT070 BKN090 14 6 59% 76.45 0.0
01 20:15 N 19 16.09 Overcast SCT070 OVC090 14.3 5.5 56% 76.4 0.0
01 19:55 N 26 16.09 Overcast BKN070 OVC090 14.5 5.5 55% 76.4 0.0
01 19:35 N 28 16.09 Overcast OVC090 14.8 6 56% 76.38 0.0
01 19:15 NE 20 16.09 Overcast OVC100 14.7 6.3 57% 76.35 0.0
01 18:55 N 26 16.09 Mostly Cloudy BKN100 14.9 6.3 16.3 10.1 57% 76.33 0.0 0.1
01 18:35 NE 19 G 46 16.09 Partly Cloudy SCT100 SCT120 15.1 5.8 54% 76.3 0.0
01 18:15 N 28 G 48 16.09 Mostly Cloudy BKN100 BKN120 16.1 6.2 52% 76.3 0.0
01 17:55 N 31 G 44 16.09 Overcast BKN034 OVC100 15.2 7.5 60% 76.28 0.0
01 17:35 NE 28 16.09 Overcast SCT028 BKN032 OVC100 15.1 8.2 64% 76.25 0.0
01 17:15 NE 19 G 26 16.09 Overcast SCT027 BKN032 OVC110 14.7 8.9 68% 76.25 0.0
01 16:55 NE 17 G 31 16.09 Overcast SCT028 OVC110 14.8 9.1 69% 76.25 0.0
01 16:35 NE 20 16.09 Overcast SCT023 SCT070 OVC120 14.4 9 70% 76.23 0.0
01 16:15 NE 19 16.09 Overcast BKN021 OVC110 13.8 9 73% 76.25 0.0
01 15:55 NE 19 G 31 16.09 Overcast SCT019 OVC110 13.5 10.8 84% 76.25 0.0 0.1
01 15:35 NE 19 16.09 Overcast BKN025 OVC110 11.3 10.8 97% 76.25 0.0
01 15:15 NE 19 16.09 Overcast SCT015 OVC023 10.6 10.1 97% 76.3 0.0
01 14:55 NE 20 16.09 Overcast OVC012 11.3 10.9 97% 76.28 0.0 0.03
01 14:35 NE 19 16.09 Overcast OVC012 10.8 10.4 97% 76.33 0.0
01 14:15 NE 19 16.09 Light Rain BKN010 BKN016 OVC026 11.4 11 97% 76.3 0.0
01 13:55 NE 19 16.09 Light Rain SCT009 BKN015 OVC022 11.2 10.8 97% 76.33 0.0 0.08
01 13:35 NE 17 16.09 Light Rain OVC009 11.1 10.7 97% 76.35 0.0 0.08
01 13:15 N 26 G 41 11.27 Light Rain Fog/Mist BKN007 OVC013 10.9 10.5 97% 76.4 0.0 0.05
01 12:55 N 26 G 35 11.27 Light Rain Fog/Mist OVC007 11 10.6 11.7 10.8 97% 76.43 0.0 0.25 0.91
01 12:35 N 26 11.27 Light Rain BKN007 OVC012 11 10.6 97% 76.43 0.0 0.15
01 12:15 N 24 G 37 8.05 Light Rain Fog/Mist BKN007 OVC010 10.9 10.5 97% 76.45 0.0 0.08
01 11:55 N 31 8.05 Light Rain Fog/Mist SCT007 BKN012 OVC050 11.3 10.9 97% 76.43 0.0 0.33
01 11:35 N 30 8.05 Light Rain Fog/Mist SCT007 BKN035 OVC045 11.2 10.8 97% 76.43 0.0 0.23
01 11:15 N 26 6.44 Light Rain Fog/Mist SCT010 BKN035 OVC045 11.1 10.6 97% 76.4 0.0 0.13
01 10:55 N 28 11.27 Light Rain SCT008 BKN015 OVC030 10.9 10.5 97% 76.35 0.0 0.33
01 10:35 N 26 8.05 Light Rain Fog/Mist BKN012 OVC021 10.9 10.5 97% 76.33 0.0 0.25
01 10:15 N 20 8.05 Rain Fog/Mist OVC010 11 10.5 97% 76.3 0.0 0.08
01 09:55 NE 22 G 31 16.09 Overcast OVC006 11 10.5 97% 76.23 0.0
01 09:35 E 17 G 30 16.09 Overcast OVC006 11.3 10.9 97% 76.17 0.0
01 09:15 NE 17 16.09 Overcast OVC006 11.4 10.9 97% 76.15 0.0
01 08:55 NE 22 11.27 Overcast OVC006 11.5 11 97% 76.15 0.0
01 08:35 NE 20 16.09 Overcast OVC006 11.6 11.1 97% 76.15 0.0
01 08:15 NE 17 16.09 Overcast BKN006 BKN010 OVC016 11.5 11.1 97% 76.12 0.0
01 07:55 E 17 16.09 Overcast BKN006 OVC018 11.5 11 97% 76.15 0.0
01 07:35 NE 17 16.09 Overcast BKN006 BKN020 OVC031 11.5 11 97% 76.15 0.0
01 07:15 NE 19 16.09 Overcast BKN006 OVC013 11.5 11 97% 76.12 0.0
01 06:55 NE 19 16.09 Overcast BKN006 OVC009 11.8 11.4 13.5 11.8 97% 76.15 0.0 0.03 0.28
01 06:35 NE 17 11.27 Light Rain OVC009 11.9 11.4 97% 76.12 0.0 0.03
01 06:15 NE 11 16.09 Light Rain OVC009 11.9 11.4 97% 76.17 0.0
01 05:55 NE 17 16.09 Overcast OVC006 12 11.5 97% 76.15 0.0 0.03
01 05:35 NE 17 16.09 Light Rain BKN006 OVC011 12.1 11.6 97% 76.12 0.0
01 05:15 NE 15 16.09 Overcast BKN006 OVC010 12.3 11.8 97% 76.12 0.0
01 04:55 NE 9 16.09 Overcast OVC006 12.8 12.3 97% 76.12 0.0
01 04:35 NE 11 16.09 Overcast OVC006 12.8 12.3 97% 76.12 0.0
01 04:15 NE 11 16.09 Light Rain OVC006 12.8 12.3 97% 76.1 0.0
01 03:55 NE 15 16.09 Overcast OVC008 12.9 12.4 97% 76.07 0.0 0.23
01 03:35 NE 9 16.09 Light Drizzle BKN006 OVC010 13.1 12.6 97% 76.12 0.0
01 03:15 NE 9 16.09 Light Rain BKN006 OVC012 13.1 12.6 97% 76.15 0.0
01 02:55 NE 11 16.09 Light Rain BKN008 OVC014 13.3 12.8 97% 76.17 0.0 0.1
01 02:35 N 13 16.09 Light Rain BKN008 BKN016 OVC023 13.2 12.7 97% 76.17 0.0 0.08
01 02:15 NE 11 11.27 Light Rain Fog/Mist BKN008 BKN022 OVC090 13.2 12.7 97% 76.2 0.0 0.05
01 01:55 NE 11 11.27 Light Rain BKN008 OVC012 13.3 12.8 97% 76.2 0.0 0.13
01 01:35 N 15 16.09 Light Rain OVC010 13.3 12.7 96% 76.2 0.0 0.08
01 01:15 NW 9 16.09 Light Rain BKN010 BKN033 OVC100 13.1 12.5 96% 76.2 0.0 0.03
01 00:55 E 9 16.09 Light Rain SCT010 BKN050 OVC100 13.6 12.3 18.6 13.6 92% 76.2 0.0 0.05 0.05
01 00:35 E 15 16.09 Light Rain SCT012 SCT037 OVC100 13.7 12.1 90% 76.17 0.0 0.03
01 00:15 NE 11 16.09 Light Rain SCT013 SCT070 OVC100 13.9 12 88% 76.2 0.0
30 23:55 E 11 16.09 Light Rain SCT013 SCT060 BKN110 14 11.9 87% 76.23 0.0
30 23:35 E 11 16.09 Mostly Cloudy SCT037 SCT060 BKN120 14.2 11.9 86% 76.23 0.0
30 23:15 NE 17 16.09 Light Rain SCT017 BKN037 OVC110 14.3 12 86% 76.17 0.0
30 22:55 NE 7 16.09 Light Drizzle SCT017 SCT060 OVC110 14.8 11.5 81% 76.23 0.0
30 22:35 N 9 16.09 Overcast SCT080 OVC110 15.4 10.9 75% 76.28 0.0
30 22:15 Calm 16.09 Partly Cloudy SCT120 15.4 10.8 74% 76.2 0.0
30 21:55 E 15 16.09 Fair CLR 15.4 10.7 74% 76.17 0.0
30 21:35 E 11 16.09 Fair CLR 15.5 10.6 73% 76.15 0.0
30 21:15 NE 9 16.09 Fair CLR 15.7 10.5 71% 76.12 0.0
30 20:55 E 9 16.09 Fair CLR 16.1 10.4 69% 76.15 0.0
30 20:35 NE 9 16.09 Partly Cloudy SCT120 16.3 10.3 68% 76.1 0.0
30 20:15 E 7 16.09 Partly Cloudy SCT110 16.5 10.3 67% 76.1 0.0
30 19:55 E 17 G 26 16.09 Partly Cloudy SCT120 17 10.3 65% 76.1 0.0
30 19:35 E 7 16.09 Partly Cloudy SCT120 17.6 10.2 62% 76.02 0.0
30 19:15 E 15 16.09 Fair CLR 18.2 10.3 60% 76 0.0
30 18:55 NE 15 16.09 Fair CLR 18.4 10.3 20.2 14.6 59% 76 0.0
30 18:35 NE 13 16.09 Fair CLR 18.8 9.9 56% 75.97 0.0
30 18:15 E 13 16.09 Fair CLR 19.1 9.8 55% 76 0.0
30 17:55 NE 11 16.09 Fair CLR 19.4 9.9 54% 75.97 0.0
30 17:35 N 15 16.09 Fair CLR 19.1 9.8 55% 76.02 0.0
30 17:15 N 20 G 30 16.09 Fair CLR 19.7 9.7 53% 76.02 0.0
30 16:55 N 22 G 35 16.09 Fair CLR 19.5 9.7 53% 76.05 0.0
30 16:35 N 24 16.09 Partly Cloudy SCT027 18.9 9.8 56% 76.05 0.0
30 16:15 N 19 16.09 Partly Cloudy SCT027 17.7 9.9 60% 76.1 0.0
30 15:55 N 17 G 26 16.09 Fair CLR 17.3 9.7 61% 76.12 0.0
30 15:35 NE 9 16.09 Partly Cloudy SCT023 SCT120 17 9.7 62% 76.12 0.0
30 15:15 N 11 16.09 Mostly Cloudy BKN023 BKN120 16.7 9.8 64% 76.15 0.0
30 14:55 N 9 16.09 Mostly Cloudy SCT023 BKN120 16.3 9.5 64% 76.15 0.0
30 14:35 N 7 16.09 Overcast SCT020 SCT027 OVC120 15.9 9.3 65% 76.15 0.0
30 14:15 NW 15 16.09 Overcast OVC020 14.7 9 69% 76.15 0.0
30 13:55 N 26 16.09 Overcast OVC020 14.9 9.2 69% 76.15 0.0
30 13:35 N 26 16.09 Overcast OVC020 15 9 68% 76.12 0.0
30 13:15 N 20 16.09 Overcast OVC020 15.5 9.7 69% 76.1 0.0
30 12:55 NE 15 16.09 Overcast OVC020 14.9 9.4 15.4 11.8 70% 76.12 0.0 0.05
30 12:35 N 26 16.09 Overcast OVC020 14.7 9.3 70% 76.17 0.0
30 12:15 N 19 16.09 Overcast OVC020 14.6 9.3 71% 76.2 0.0
30 11:55 E 9 G 26 16.09 Mostly Cloudy BKN016 BKN120 14.7 9.5 71% 76.15 0.0
30 11:35 NE 28 G 46 16.09 Overcast OVC014 14.8 9.8 72% 76.1 0.0
30 10:55 NE 15 G 28 16.09 Overcast BKN012 OVC110 13.8 10.3 80% 76.15 0.0
30 10:35 NE 17 G 39 16.09 Overcast SCT010 OVC100 12.9 10.6 86% 76.02 0.0
30 10:15 E 20 G 28 16.09 Overcast OVC010 12.8 10.5 86% 76.05 0.0
30 09:55 N 24 16.09 Overcast OVC010 12.9 10.5 85% 76.2 0.0 0.05
30 09:35 E 20 16.09 Overcast OVC012 12.9 10.5 85% 76.12 0.0
30 09:15 NE 11 16.09 Overcast OVC012 12.9 10.2 84% 76.15 0.0
30 08:55 N 17 16.09 Overcast OVC014 12.8 9.9 83% 76.17 0.0
30 08:35 N 11 16.09 Overcast BKN014 OVC022 12.7 9.8 83% 76.2 0.0
30 08:15 N 15 16.09 Mostly Cloudy BKN014 BKN024 BKN120 12.5 9.7 83% 76.17 0.0
30 07:55 NW 11 16.09 Mostly Cloudy BKN120 12 9.4 84% 76.12 0.0 0.03
30 07:35 E 19 16.09 Mostly Cloudy BKN120 11.9 9.5 85% 76.02 0.0 0.03
30 07:15 NE 9 16.09 Light Rain SCT021 SCT060 BKN120 12.1 9.4 84% 76.05 0.0 0.03
30 06:55 E 11 11.27 Thunderstorm Light Rain in Vicinity BKN019 OVC024 12.8 8.5 14.2 12.6 75% 76.12 0.0
30 06:35 N 24 16.09 Overcast OVC019 13 7.9 71% 76.15 0.0
30 06:15 N 13 16.09 Overcast OVC019 13 7.8 71% 76.15 0.0
30 05:55 N 20 16.09 Overcast SCT019 OVC027 13.1 7.7 70% 76.12 0.0
30 05:35 NE 9 16.09 Overcast SCT019 OVC027 13.2 7.8 70% 76.15 0.0
30 05:15 N 17 16.09 Overcast SCT019 OVC027 13.3 7.7 69% 76.12 0.0
30 04:55 N 19 16.09 Overcast OVC027 13.3 7.6 69% 76.07 0.0
30 04:35 NE 15 16.09 Partly Cloudy SCT027 13.3 7.5 68% 76.05 0.0
30 04:15 N 19 16.09 Fair CLR 13.4 7.4 67% 76.02 0.0
30 03:55 NE 15 16.09 Partly Cloudy SCT029 13.5 7.4 67% 76.05 0.0
30 03:35 NE 7 16.09 Fair CLR 13.6 7.3 66% 76.1 0.0
30 03:15 E 9 16.09 Fair CLR 13.6 7.2 66% 76.12 0.0
30 02:55 N 13 16.09 Fair CLR 13.7 6.9 64% 76.12 0.0
30 02:35 NE 11 16.09 Fair CLR 13.7 6.8 63% 76.12 0.0
30 02:15 NE 9 16.09 Fair CLR 13.8 6.7 63% 76.15 0.0
30 01:55 E 9 16.09 Fair CLR 13.9 6.7 62% 76.15 0.0
30 01:35 NE 9 16.09 Fair CLR 14 6.7 62% 76.2 0.0
30 01:15 NE 7 16.09 Fair CLR 14.1 6.6 61% 76.17 0.0
30 00:55 NE 13 16.09 Fair CLR 14.2 6.4 19.4 14.2 60% 76.17 0.0
30 00:35 NE 13 16.09 Fair CLR 14.4 6.2 58% 76.17 0.0
30 00:15 NE 15 16.09 Fair CLR 14.6 6.3 58% 76.17 0.0
29 23:55 NE 15 16.09 Fair CLR 14.8 6.4 57% 76.17 0.0
29 23:35 NE 13 16.09 Fair CLR 15 6.4 57% 76.2 0.0
29 23:15 NE 13 16.09 Fair CLR 15.2 6.5 56% 76.17 0.0
29 22:55 NE 15 16.09 Fair CLR 15.4 6.7 56% 76.17 0.0
29 22:35 NE 15 16.09 Fair CLR 15.7 6.8 56% 76.17 0.0
29 22:15 NE 19 16.09 Fair CLR 16 7 55% 76.17 0.0
29 21:55 NE 15 16.09 Fair CLR 16.3 7 54% 76.15 0.0
29 21:35 NE 15 16.09 Fair CLR 16.7 7.1 53% 76.15 0.0
29 21:15 NE 24 G 41 16.09 Fair CLR 17.1 7.2 52% 76.1 0.0
29 20:55 NE 17 G 30 16.09 Fair CLR 17.6 7.6 52% 76.1 0.0
29 20:35 NE 13 16.09 Fair CLR 18 7.8 52% 76.07 0.0
29 20:15 NE 13 16.09 Fair CLR 18.3 7.9 51% 76.07 0.0
Date Time (cdt) Wind (kph) Vis. (km) Weather Sky Cond. Air Dwpt Max. Min. Relative Humidity Wind Chill (°C) Heat Index (°C) altimeter (cm) sea level (mb) 1 hr 3 hr 6 hr
6 hour
Temperature (ºC) Pressure Precipitation (cm)